TUI8FG EDDV-LEPA
Flight info
| Callsign | TUI8FG |
|---|---|
| Flight time | N/A |
| Altitude | 36000 |
| Route | VAXEV2Y VAXEV Z718 MAWEQ Y348 DOMEG DCT ABAMI DCT NVO DCT LIRSU DCT LIMGO/N0462F370 N852 SUTAL DCT GTQ DCT POGOL DCT LASAT DCT MOROK DCT GILIR DCT GEVEA DCT INCUS DCT BALSI DCT RETNO DCT TUPOX DCT MTG DCT DIVKO DCT VATIR DCT PIVUS DCT BODEQ DCT VERSO DCT LUNIK |
| Aircraft | B738/M-SDE2E3FGHIRWXY/LB1 |
Departure
| Time | 2026-05-08 08:05 |
|---|---|
| Airport | Hannover Airport (EDDV) |
Arrival
| Time | N/A |
|---|---|
| Airport | Palma de Mallorca Airport (LEPA) |
| Time | Latitude | Longitude | Altitude | Speed | Heading |
|---|---|---|---|---|---|
| 2026-05-08 07:38 | 52.45741 | 9.69636 | 178 ft | 0 kts | 27° |
| 2026-05-08 07:55 | 52.45724 | 9.69622 | 178 ft | 4 kts | 27° |
| 2026-05-08 07:55 | 52.45711 | 9.69611 | 177 ft | 0 kts | 28° |
| 2026-05-08 07:57 | 52.45719 | 9.69613 | 177 ft | 2 kts | 4° |
| 2026-05-08 07:58 | 52.45732 | 9.69584 | 177 ft | 5 kts | 272° |
| 2026-05-08 07:58 | 52.45719 | 9.69516 | 177 ft | 7 kts | 266° |
| 2026-05-08 07:58 | 52.45743 | 9.69452 | 177 ft | 7 kts | 306° |
| 2026-05-08 07:58 | 52.45757 | 9.69379 | 177 ft | 7 kts | 276° |
| 2026-05-08 07:59 | 52.45765 | 9.69280 | 177 ft | 11 kts | 294° |
| 2026-05-08 07:59 | 52.45830 | 9.69179 | 177 ft | 15 kts | 323° |
| 2026-05-08 07:59 | 52.45924 | 9.69061 | 177 ft | 18 kts | 323° |
| 2026-05-08 07:59 | 52.46031 | 9.68929 | 177 ft | 20 kts | 323° |
| 2026-05-08 08:00 | 52.46145 | 9.68787 | 177 ft | 21 kts | 322° |
| 2026-05-08 08:00 | 52.46264 | 9.68634 | 177 ft | 22 kts | 322° |
| 2026-05-08 08:00 | 52.46386 | 9.68481 | 177 ft | 22 kts | 323° |
| 2026-05-08 08:00 | 52.46493 | 9.68320 | 177 ft | 21 kts | 303° |
| 2026-05-08 08:01 | 52.46522 | 9.68093 | 177 ft | 21 kts | 272° |
| 2026-05-08 08:01 | 52.46529 | 9.67872 | 177 ft | 20 kts | 272° |
| 2026-05-08 08:01 | 52.46532 | 9.67683 | 177 ft | 13 kts | 271° |
| 2026-05-08 08:01 | 52.46535 | 9.67525 | 177 ft | 15 kts | 274° |
| 2026-05-08 08:02 | 52.46541 | 9.67345 | 177 ft | 17 kts | 274° |
| 2026-05-08 08:02 | 52.46548 | 9.67133 | 177 ft | 20 kts | 273° |
| 2026-05-08 08:02 | 52.46555 | 9.66886 | 177 ft | 23 kts | 272° |
| 2026-05-08 08:02 | 52.46563 | 9.66614 | 177 ft | 24 kts | 273° |
| 2026-05-08 08:03 | 52.46569 | 9.66350 | 177 ft | 23 kts | 272° |
| 2026-05-08 08:03 | 52.46584 | 9.66107 | 177 ft | 19 kts | 292° |
| 2026-05-08 08:03 | 52.46687 | 9.66009 | 177 ft | 18 kts | 1° |
| 2026-05-08 08:03 | 52.46799 | 9.66031 | 173 ft | 10 kts | 41° |
| 2026-05-08 08:04 | 52.46802 | 9.66151 | 175 ft | 18 kts | 93° |
| 2026-05-08 08:04 | 52.46789 | 9.66738 | 176 ft | 85 kts | 92° |
| 2026-05-08 08:04 | 52.46754 | 9.68022 | 175 ft | 141 kts | 92° |
| 2026-05-08 08:04 | 52.46705 | 9.69857 | 338 ft | 172 kts | 92° |
| 2026-05-08 08:05 | 52.46628 | 9.71824 | 1020 ft | 177 kts | 93° |
| 2026-05-08 08:05 | 52.46570 | 9.73864 | 1608 ft | 190 kts | 90° |
| 2026-05-08 08:05 | 52.46989 | 9.75962 | 2054 ft | 205 kts | 53° |
| 2026-05-08 08:05 | 52.48213 | 9.77213 | 2571 ft | 217 kts | 13° |
| 2026-05-08 08:06 | 52.49716 | 9.77009 | 3197 ft | 220 kts | 348° |
| 2026-05-08 08:06 | 52.51151 | 9.76268 | 3668 ft | 227 kts | 333° |
| 2026-05-08 08:06 | 52.52254 | 9.74409 | 4069 ft | 239 kts | 298° |
| 2026-05-08 08:06 | 52.52948 | 9.71887 | 4471 ft | 249 kts | 294° |
| 2026-05-08 08:07 | 52.53632 | 9.69375 | 4718 ft | 269 kts | 295° |
| 2026-05-08 08:07 | 52.54420 | 9.66523 | 5330 ft | 275 kts | 295° |
| 2026-05-08 08:07 | 52.55213 | 9.63666 | 6114 ft | 275 kts | 295° |
| 2026-05-08 08:07 | 52.56007 | 9.60814 | 6692 ft | 283 kts | 295° |
| 2026-05-08 08:08 | 52.56833 | 9.57859 | 7368 ft | 284 kts | 295° |
| 2026-05-08 08:08 | 52.57668 | 9.54872 | 8141 ft | 284 kts | 295° |
| 2026-05-08 08:08 | 52.58483 | 9.51957 | 8868 ft | 284 kts | 294° |
| 2026-05-08 08:08 | 52.59308 | 9.49001 | 9595 ft | 286 kts | 294° |
| 2026-05-08 08:09 | 52.60139 | 9.46019 | 10292 ft | 287 kts | 294° |
| 2026-05-08 08:09 | 52.60999 | 9.42922 | 10596 ft | 303 kts | 293° |
| 2026-05-08 08:09 | 52.61510 | 9.39522 | 10736 ft | 322 kts | 269° |
| 2026-05-08 08:09 | 52.60979 | 9.35876 | 10866 ft | 339 kts | 241° |
| 2026-05-08 08:10 | 52.59405 | 9.32890 | 11017 ft | 356 kts | 218° |
| 2026-05-08 08:10 | 52.57377 | 9.30411 | 11241 ft | 369 kts | 216° |
| 2026-05-08 08:10 | 52.55268 | 9.27930 | 11683 ft | 375 kts | 216° |
| 2026-05-08 08:10 | 52.53151 | 9.25419 | 12272 ft | 376 kts | 216° |
| 2026-05-08 08:11 | 52.51031 | 9.22862 | 12846 ft | 380 kts | 217° |
| 2026-05-08 08:11 | 52.48902 | 9.20260 | 13449 ft | 382 kts | 217° |
| 2026-05-08 08:11 | 52.46777 | 9.17643 | 14034 ft | 384 kts | 218° |
| 2026-05-08 08:11 | 52.44632 | 9.14996 | 14551 ft | 387 kts | 217° |
| 2026-05-08 08:12 | 52.42470 | 9.12332 | 15055 ft | 391 kts | 218° |
| 2026-05-08 08:12 | 52.40353 | 9.09542 | 15590 ft | 392 kts | 226° |
| 2026-05-08 08:12 | 52.38819 | 9.05866 | 16158 ft | 392 kts | 245° |
| 2026-05-08 08:12 | 52.37767 | 9.01741 | 16700 ft | 394 kts | 249° |
| 2026-05-08 08:13 | 52.36777 | 8.97526 | 17161 ft | 399 kts | 250° |
| 2026-05-08 08:13 | 52.35787 | 8.93270 | 17679 ft | 401 kts | 249° |
| 2026-05-08 08:13 | 52.34781 | 8.88993 | 18195 ft | 404 kts | 249° |
| 2026-05-08 08:13 | 52.33756 | 8.84702 | 18641 ft | 407 kts | 249° |
| 2026-05-08 08:14 | 52.32712 | 8.80390 | 19073 ft | 409 kts | 249° |
| 2026-05-08 08:14 | 52.31657 | 8.76061 | 19528 ft | 411 kts | 249° |
| 2026-05-08 08:14 | 52.30596 | 8.71722 | 19971 ft | 412 kts | 249° |
| 2026-05-08 08:14 | 52.29539 | 8.67411 | 20396 ft | 414 kts | 249° |
| 2026-05-08 08:15 | 52.28463 | 8.63031 | 20801 ft | 417 kts | 248° |
| 2026-05-08 08:15 | 52.27198 | 8.58770 | 21202 ft | 420 kts | 240° |
| 2026-05-08 08:15 | 52.25503 | 8.54841 | 21607 ft | 423 kts | 230° |
| 2026-05-08 08:15 | 52.23543 | 8.51306 | 22022 ft | 425 kts | 229° |
| 2026-05-08 08:16 | 52.21523 | 8.47743 | 22392 ft | 427 kts | 228° |
| 2026-05-08 08:16 | 52.19508 | 8.44195 | 22750 ft | 429 kts | 229° |
| 2026-05-08 08:16 | 52.17476 | 8.40604 | 23113 ft | 431 kts | 229° |
| 2026-05-08 08:16 | 52.15444 | 8.36996 | 23483 ft | 433 kts | 229° |
| 2026-05-08 08:17 | 52.13404 | 8.33363 | 23800 ft | 436 kts | 229° |
| 2026-05-08 08:17 | 52.11354 | 8.29708 | 24085 ft | 437 kts | 229° |
| 2026-05-08 08:17 | 52.09299 | 8.26045 | 24382 ft | 439 kts | 229° |
| 2026-05-08 08:17 | 52.07241 | 8.22379 | 24678 ft | 440 kts | 229° |
| 2026-05-08 08:18 | 52.05177 | 8.18708 | 24956 ft | 442 kts | 229° |
| 2026-05-08 08:18 | 52.03126 | 8.15064 | 25218 ft | 443 kts | 229° |
| 2026-05-08 08:18 | 52.01006 | 8.11306 | 25483 ft | 445 kts | 229° |
| 2026-05-08 08:18 | 51.98907 | 8.07590 | 25728 ft | 446 kts | 229° |
| 2026-05-08 08:19 | 51.96834 | 8.03925 | 25968 ft | 448 kts | 229° |
| 2026-05-08 08:19 | 51.94724 | 8.00201 | 26207 ft | 449 kts | 229° |
| 2026-05-08 08:19 | 51.92694 | 7.96624 | 26434 ft | 451 kts | 229° |
| 2026-05-08 08:19 | 51.90584 | 7.92910 | 26674 ft | 452 kts | 229° |
| 2026-05-08 08:20 | 51.88453 | 7.89166 | 26904 ft | 453 kts | 229° |